createdAt,value
2023-02-03T00:02:14.808Z,101518.91
2023-02-03T00:05:03.313Z,101519.41
2023-02-03T00:07:52.109Z,101505.91
2023-02-03T00:10:41.224Z,101514.22
2023-02-03T00:13:29.879Z,101501.72
2023-02-03T00:16:19.768Z,101505.91
2023-02-03T00:19:08.272Z,101494.88
2023-02-03T00:21:57.106Z,101493.72
2023-02-03T00:24:45.623Z,101492.28
2023-02-03T00:27:34.478Z,101497.16
2023-02-03T00:30:22.969Z,101473.66
2023-02-03T00:33:12.807Z,101487.22
2023-02-03T00:36:06.052Z,101498.59
2023-02-03T00:38:55.079Z,101498.91
2023-02-03T00:41:43.713Z,101497.09
2023-02-03T00:44:32.179Z,101490.19
2023-02-03T00:47:20.685Z,101493.34
2023-02-03T00:50:11.877Z,101486.91
2023-02-03T00:53:00.328Z,101515.16
2023-02-03T00:55:48.806Z,101511.34
2023-02-03T00:58:37.251Z,101508.53
2023-02-03T01:01:25.819Z,101504.84
2023-02-03T01:04:14.395Z,101509.19
2023-02-03T01:07:04.576Z,101501.19
2023-02-03T01:09:53.015Z,101484.09
2023-02-03T01:12:41.439Z,101485.81
2023-02-03T01:15:30.038Z,101482.56
2023-02-03T01:18:18.771Z,101479.22
2023-02-03T01:21:08.768Z,101458.81
2023-02-03T01:23:59.928Z,101389.03
2023-02-03T01:26:48.451Z,101469.38
2023-02-03T01:29:36.926Z,101494.94
2023-02-03T01:32:25.393Z,101489.59
2023-02-03T01:35:13.910Z,101511.63
2023-02-03T01:38:02.370Z,101500.41
2023-02-03T01:40:52.215Z,101515.47
2023-02-03T01:43:42.787Z,101480.19
2023-02-03T01:46:33.993Z,101482.47
2023-02-03T01:49:26.432Z,101490.81
2023-02-03T01:52:14.932Z,101485.56
2023-02-03T01:55:05.896Z,101473.19
2023-02-03T01:57:58.983Z,101467.63
2023-02-03T02:00:48.621Z,101454.41
2023-02-03T02:03:41.020Z,101446.25
2023-02-03T02:06:29.646Z,101430.34
2023-02-03T02:09:18.323Z,101413.16
2023-02-03T02:12:07.092Z,101417.22
2023-02-03T02:14:57.220Z,101421.31
2023-02-03T02:18:08.416Z,101426.81
2023-02-03T02:21:36.757Z,101426.25
2023-02-03T02:25:03.702Z,101419.72
2023-02-03T02:28:15.138Z,101413.53
2023-02-03T02:31:53.369Z,101398.59
2023-02-03T02:34:50.647Z,101397.69
2023-02-03T02:37:48.721Z,101408.25
2023-02-03T02:40:41.133Z,101415.81
2023-02-03T02:43:33.423Z,101410.47
2023-02-03T02:46:26.625Z,101398.81
2023-02-03T02:49:17.850Z,101356.63
2023-02-03T02:52:09.543Z,101395.63
2023-02-03T02:55:02.716Z,101402.03
2023-02-03T02:57:52.640Z,101392.03
2023-02-03T03:00:41.935Z,101383.34
2023-02-03T03:03:30.637Z,101380.69
2023-02-03T03:06:22.047Z,101398.06
2023-02-03T03:09:13.855Z,101372.97
2023-02-03T03:12:07.062Z,101381.34
2023-02-03T03:14:58.764Z,101360.94
2023-02-03T03:17:49.719Z,101351.19
2023-02-03T03:20:40.453Z,101359.56
2023-02-03T03:23:31.746Z,101387.41
2023-02-03T03:26:27.882Z,101397.47
2023-02-03T03:29:19.485Z,101399.38
2023-02-03T03:32:08.090Z,101409.72
2023-02-03T03:34:57.126Z,101407.88
2023-02-03T03:37:47.415Z,101426.03
2023-02-03T03:40:39.493Z,101416.03
2023-02-03T03:43:31.459Z,101424.75
2023-02-03T03:46:22.869Z,101427.41
2023-02-03T03:49:12.039Z,101440.59
2023-02-03T03:52:04.006Z,101441.81
2023-02-03T03:54:53.829Z,101446.50
2023-02-03T03:57:44.922Z,101452.03
2023-02-03T04:00:37.166Z,101433.03
2023-02-03T04:03:29.745Z,101459.59
2023-02-03T04:06:18.245Z,101459.91
2023-02-03T04:09:07.035Z,101474.09
2023-02-03T04:12:06.020Z,101465.94
2023-02-03T04:14:54.549Z,101454.28
2023-02-03T04:17:44.357Z,101436.59
2023-02-03T04:20:33.495Z,101424.75
2023-02-03T04:23:22.024Z,101435.59
2023-02-03T04:26:10.495Z,101437.94
2023-02-03T04:28:59.027Z,101429.72
2023-02-03T04:31:47.569Z,101424.41
2023-02-03T04:34:37.546Z,101421.94
2023-02-03T04:37:26.783Z,101427.72
2023-02-03T04:40:15.375Z,101445.09
2023-02-03T04:43:07.711Z,101439.69
2023-02-03T04:45:56.371Z,101437.72
2023-02-03T04:48:44.841Z,101422.44
2023-02-03T04:51:34.636Z,101437.38
2023-02-03T04:54:23.164Z,101436.28
2023-02-03T04:57:11.645Z,101446.69
2023-02-03T05:00:00.173Z,101443.41
2023-02-03T05:02:48.705Z,101445.78
2023-02-03T05:05:37.197Z,101447.72
2023-02-03T05:08:26.999Z,101440.72
2023-02-03T05:11:15.453Z,101450.38
2023-02-03T05:14:04.043Z,101446.03
2023-02-03T05:16:52.559Z,101438.50
2023-02-03T05:19:41.068Z,101428.41
2023-02-03T05:22:29.575Z,101300.19
2023-02-03T05:25:19.754Z,101431.53
2023-02-03T05:28:08.283Z,101428.72
2023-02-03T05:30:59.216Z,101433.03
2023-02-03T05:33:47.777Z,101423.16
2023-02-03T05:36:36.317Z,101435.88
2023-02-03T05:39:24.966Z,101378.59
2023-02-03T05:42:13.787Z,101423.25
2023-02-03T05:45:02.273Z,101427.72
2023-02-03T05:47:50.701Z,101435.22
2023-02-03T05:50:39.499Z,101409.66
2023-02-03T05:53:28.432Z,101402.34
2023-02-03T05:56:16.914Z,101378.19
2023-02-03T05:59:07.149Z,101387.53
2023-02-03T06:01:55.604Z,101418.50
2023-02-03T06:04:44.093Z,101418.22
2023-02-03T06:07:32.610Z,101415.53
2023-02-03T06:10:21.084Z,101392.81
2023-02-03T06:13:11.463Z,101401.34
2023-02-03T06:16:01.372Z,101409.66
2023-02-03T06:18:49.836Z,101397.00
2023-02-03T06:21:38.298Z,101421.03
2023-02-03T06:24:26.800Z,101411.66
2023-02-03T06:27:15.359Z,101412.47
2023-02-03T06:30:04.594Z,101367.03
2023-02-03T06:32:56.110Z,101396.41
2023-02-03T06:35:44.612Z,101403.03
2023-02-03T06:38:33.079Z,101390.38
2023-02-03T06:41:27.359Z,101396.63
2023-02-03T06:44:15.843Z,101387.19
2023-02-03T06:47:04.281Z,101391.97
2023-02-03T06:49:54.238Z,101359.94
2023-02-03T06:52:42.770Z,101387.63
2023-02-03T06:55:31.287Z,101394.63
2023-02-03T06:58:19.777Z,101381.59
2023-02-03T07:01:08.273Z,101376.25
2023-02-03T07:03:57.920Z,101379.38
2023-02-03T07:06:47.787Z,101366.63
2023-02-03T07:09:36.264Z,101371.81
2023-02-03T07:12:24.793Z,101359.94
2023-02-03T07:15:13.441Z,101371.31
2023-02-03T07:18:01.936Z,101369.16
2023-02-03T07:20:50.409Z,101345.06
2023-02-03T07:23:40.225Z,101365.97
2023-02-03T07:26:28.799Z,101380.66
2023-02-03T07:29:17.243Z,101397.34
2023-02-03T07:32:06.046Z,101399.56
2023-02-03T07:34:54.540Z,101399.34
2023-02-03T07:37:43.203Z,101412.59
2023-02-03T07:40:33.063Z,101400.72
2023-02-03T07:43:21.809Z,101426.09
2023-02-03T07:46:10.333Z,101435.09
2023-02-03T07:48:58.884Z,101443.94
2023-02-03T07:51:47.431Z,101440.56
2023-02-03T07:54:35.882Z,101458.81
2023-02-03T07:57:25.733Z,101451.44
2023-02-03T08:00:15.715Z,101453.34
2023-02-03T08:03:04.316Z,101443.56
2023-02-03T08:05:53.484Z,101473.31
2023-02-03T08:08:42.210Z,101442.03
2023-02-03T08:11:32.554Z,101461.81
2023-02-03T08:14:22.375Z,101456.34
2023-02-03T08:17:10.836Z,101461.31
2023-02-03T08:19:59.362Z,101466.19
2023-02-03T08:22:47.900Z,101470.59
2023-02-03T08:25:36.382Z,101465.09
2023-02-03T08:28:24.965Z,101476.69
2023-02-03T08:31:14.940Z,101479.78
2023-02-03T08:34:03.523Z,101473.38
2023-02-03T08:36:52.013Z,101472.50
2023-02-03T08:39:40.696Z,101491.38
2023-02-03T08:42:29.222Z,101496.09
2023-02-03T08:45:17.664Z,101471.84
2023-02-03T08:48:07.708Z,101467.47
2023-02-03T08:50:56.189Z,101465.56
2023-02-03T08:53:44.812Z,101471.44
2023-02-03T08:56:34.106Z,101468.53
2023-02-03T08:59:23.058Z,101444.66
2023-02-03T09:02:15.820Z,101464.66
2023-02-03T09:05:06.246Z,101462.28
2023-02-03T09:07:54.795Z,101458.25
2023-02-03T09:10:43.335Z,101466.47
2023-02-03T09:13:31.855Z,101460.78
2023-02-03T09:16:21.669Z,101462.13
2023-02-03T09:19:10.480Z,101446.81
2023-02-03T09:22:00.392Z,101463.50
2023-02-03T09:24:50.622Z,101475.72
2023-02-03T09:27:39.144Z,101458.00
2023-02-03T09:30:28.937Z,101455.34
2023-02-03T09:33:17.566Z,101452.75
2023-02-03T09:36:07.575Z,101458.34
2023-02-03T09:38:57.866Z,101474.38
2023-02-03T09:42:28.593Z,101460.94
2023-02-03T09:45:22.644Z,101455.13
2023-02-03T09:48:17.052Z,101450.69
2023-02-03T09:51:06.256Z,101447.63
2023-02-03T09:53:59.841Z,101449.03
2023-02-03T09:56:52.364Z,101449.50
2023-02-03T09:59:41.209Z,101421.44
2023-02-03T10:02:47.565Z,101415.13
2023-02-03T10:05:57.591Z,101413.88
2023-02-03T10:09:12.520Z,101430.56
2023-02-03T10:12:16.417Z,101435.59
2023-02-03T10:15:20.482Z,101445.16
2023-02-03T10:18:11.541Z,101449.94
2023-02-03T10:21:04.099Z,101446.50
2023-02-03T10:23:55.043Z,101468.34
2023-02-03T10:26:44.921Z,101472.06
2023-02-03T10:29:38.690Z,101467.88
2023-02-03T10:32:28.556Z,101406.31
2023-02-03T10:35:17.168Z,101441.31
2023-02-03T10:38:06.880Z,101445.34
2023-02-03T10:40:55.473Z,101443.06
2023-02-03T10:43:52.590Z,101414.34
2023-02-03T10:46:43.164Z,101418.72
2023-02-03T10:49:31.735Z,101428.25
2023-02-03T10:52:28.968Z,101433.06
2023-02-03T10:55:31.881Z,101437.41
2023-02-03T10:58:24.935Z,101322.34
2023-02-03T11:01:17.111Z,101429.75
2023-02-03T11:04:07.548Z,101411.75
2023-02-03T11:06:57.889Z,101418.94
2023-02-03T11:09:46.387Z,101403.44
2023-02-03T11:12:34.925Z,101418.16
2023-02-03T11:15:23.433Z,101408.94
2023-02-03T11:21:14.396Z,101408.31
2023-02-03T11:24:06.221Z,101390.75
2023-02-03T11:26:56.936Z,101392.13
2023-02-03T11:29:47.544Z,101389.00
2023-02-03T11:32:37.822Z,101403.63
2023-02-03T11:35:27.576Z,101392.13
2023-02-03T11:38:30.797Z,101371.81
2023-02-03T11:41:23.887Z,101365.28
2023-02-03T11:44:16.362Z,101322.50
2023-02-03T11:47:09.146Z,101348.59
2023-02-03T11:50:17.274Z,101346.81
2023-02-03T11:53:23.034Z,101347.88
2023-02-03T11:56:28.145Z,101366.19
2023-02-03T11:59:27.644Z,101357.69
2023-02-03T12:02:53.026Z,101346.34
2023-02-03T12:05:48.139Z,101333.31
2023-02-03T12:08:48.368Z,101355.56
2023-02-03T12:11:50.071Z,101364.53
2023-02-03T12:14:48.954Z,101363.81
2023-02-03T12:17:51.836Z,101364.63
2023-02-03T12:20:59.447Z,101347.88
2023-02-03T12:23:56.237Z,101373.81
2023-02-03T12:26:51.595Z,101377.81
2023-02-03T12:29:43.987Z,101375.88
2023-02-03T12:32:36.333Z,101379.53
2023-02-03T12:35:27.947Z,101381.22
2023-02-03T12:38:21.419Z,101394.59
2023-02-03T12:41:13.919Z,101388.97
2023-02-03T12:44:07.602Z,101381.19
2023-02-03T12:47:02.644Z,101373.03
2023-02-03T12:49:54.823Z,101354.81
2023-02-03T12:52:46.224Z,101330.59
2023-02-03T12:55:37.953Z,101315.53
2023-02-03T12:58:28.558Z,101265.34
2023-02-03T13:01:23.378Z,101302.31
2023-02-03T14:49:08.569Z,101291.31
2023-02-03T14:52:15.874Z,101298.25
2023-02-03T14:55:16.619Z,101293.91
2023-02-03T14:58:07.531Z,101281.88
2023-02-03T15:00:56.496Z,101300.97
2023-02-03T15:04:24.937Z,101284.59
2023-02-03T15:07:38.724Z,101275.53
2023-02-03T15:10:31.398Z,101284.25
2023-02-03T15:13:26.587Z,101275.38
2023-02-03T15:16:20.415Z,101285.41
2023-02-03T15:19:17.431Z,101287.41
2023-02-03T15:22:20.353Z,101290.94
2023-02-03T15:25:18.119Z,101306.31
2023-02-03T15:28:16.444Z,101319.38
2023-02-03T15:31:08.939Z,101320.34
2023-02-03T15:34:00.385Z,101335.56
2023-02-03T15:36:50.901Z,101355.16
2023-02-03T15:39:47.416Z,101346.59
2023-02-03T15:42:39.039Z,101351.47
2023-02-03T15:45:30.500Z,101340.75
2023-02-03T15:48:29.717Z,101367.31
2023-02-03T15:51:20.341Z,101359.13
2023-02-03T15:54:14.024Z,101360.31
2023-02-03T15:57:06.622Z,101330.31
2023-02-03T15:59:57.087Z,101351.59
2023-02-03T16:02:46.492Z,101346.25
2023-02-03T16:05:37.028Z,101354.09
2023-02-03T16:08:33.832Z,101231.28
2023-02-03T16:11:34.289Z,101356.03
2023-02-03T16:14:37.575Z,101345.97
2023-02-03T16:17:29.389Z,101357.19
2023-02-03T16:20:29.281Z,101348.81
2023-02-03T16:23:20.179Z,101352.50
2023-02-03T16:26:18.938Z,101360.34
2023-02-03T16:29:30.699Z,101343.81
2023-02-03T16:32:39.130Z,101358.53
2023-02-03T16:35:45.278Z,101346.69
2023-02-03T16:38:51.244Z,101335.81
2023-02-03T16:41:57.198Z,101338.31
2023-02-03T16:45:03.789Z,101352.19
2023-02-03T16:48:11.295Z,101354.53
2023-02-03T16:51:05.190Z,101337.69
2023-02-03T16:53:53.716Z,101341.84
2023-02-03T16:56:42.644Z,101342.00
2023-02-03T16:59:31.225Z,101342.34
2023-02-03T17:02:19.843Z,101369.94
2023-02-03T17:05:09.759Z,101362.56
2023-02-03T17:07:58.304Z,101381.13
2023-02-03T17:10:49.339Z,101380.81
2023-02-03T17:13:39.108Z,101382.81
2023-02-03T17:16:28.795Z,101386.47
2023-02-03T17:19:17.306Z,101384.47
2023-02-03T17:22:07.609Z,101385.81
2023-02-03T17:24:56.038Z,101386.63
2023-02-03T17:27:44.621Z,101380.81
2023-02-03T17:30:35.251Z,101295.63
2023-02-03T17:33:23.893Z,101391.97
2023-02-03T17:36:13.712Z,101386.31
2023-02-03T17:54:37.121Z,101296.59
2023-02-03T17:57:25.599Z,101391.81
2023-02-03T18:00:14.791Z,101387.47
2023-02-03T18:03:03.378Z,101397.38
2023-02-03T18:05:51.966Z,101412.25
2023-02-03T18:08:40.773Z,101403.06
2023-02-03T18:11:32.490Z,101406.44
2023-02-03T18:14:20.907Z,101416.59
2023-02-03T18:17:09.723Z,101414.78
2023-02-03T18:20:00.459Z,101414.63
2023-02-03T18:22:49.088Z,101422.94
2023-02-03T18:25:37.575Z,101428.50
2023-02-03T18:28:27.732Z,101433.88
2023-02-03T18:31:17.558Z,101415.41
2023-02-03T18:34:06.598Z,101428.16
2023-02-03T18:36:55.296Z,101426.66
2023-02-03T18:39:43.797Z,101429.31
2023-02-03T18:42:33.299Z,101438.00
2023-02-03T18:45:23.143Z,101308.47
2023-02-03T18:48:11.583Z,101437.03
2023-02-03T18:51:00.213Z,101440.50
2023-02-03T18:53:49.108Z,101428.16
2023-02-03T18:56:37.794Z,101432.31
2023-02-03T18:59:26.699Z,101436.31
2023-02-03T19:02:16.613Z,101446.00
2023-02-03T19:05:05.685Z,101429.25
2023-02-03T19:07:54.161Z,101417.16
2023-02-03T19:10:42.653Z,101433.41
2023-02-03T19:13:31.112Z,101431.06
2023-02-03T19:16:19.959Z,101438.22
2023-02-03T19:19:09.848Z,101436.88
2023-02-03T19:21:58.749Z,101438.94
2023-02-03T19:24:47.234Z,101443.59
2023-02-03T19:27:35.746Z,101444.44
2023-02-03T19:30:24.277Z,101441.75
2023-02-03T19:33:12.972Z,101407.94
2023-02-03T19:36:02.853Z,101451.59
2023-02-03T19:38:51.304Z,101443.25
2023-02-03T19:41:42.079Z,101457.63
2023-02-03T19:44:30.608Z,101452.78
2023-02-03T19:47:19.252Z,101450.78
2023-02-03T19:50:08.060Z,101466.44
2023-02-03T19:52:57.909Z,101468.97
2023-02-03T19:55:47.116Z,101475.00
2023-02-03T19:58:35.636Z,101467.00
2023-02-03T20:01:24.712Z,101458.88
2023-02-03T20:04:13.212Z,101474.13
2023-02-03T20:07:07.703Z,101463.91
2023-02-03T20:09:57.474Z,101430.44
2023-02-03T20:12:46.209Z,101468.84
2023-02-03T20:15:34.673Z,101473.06
2023-02-03T20:18:23.117Z,101487.13
2023-02-03T20:21:11.650Z,101472.91
2023-02-03T20:24:00.139Z,101437.25
2023-02-03T20:26:49.938Z,101473.16
2023-02-03T20:29:38.543Z,101457.34
2023-02-03T20:32:27.137Z,101468.56
2023-02-03T20:35:15.615Z,101460.13
2023-02-03T20:38:04.108Z,101466.38
2023-02-03T20:40:52.726Z,101460.31
2023-02-03T20:43:44.122Z,101461.19
2023-02-03T20:46:32.617Z,101463.69
2023-02-03T20:49:22.307Z,101461.72
2023-02-03T20:52:12.628Z,101460.41
2023-02-03T20:55:01.379Z,101473.03
2023-02-03T20:57:51.576Z,101468.72
2023-02-03T21:00:41.530Z,101481.19
2023-02-03T21:03:47.605Z,101476.38
2023-02-03T21:06:36.417Z,101478.22
2023-02-03T21:09:27.120Z,101464.53
2023-02-03T21:12:16.207Z,101475.38
2023-02-03T21:15:19.352Z,101466.88
2023-02-03T21:18:25.173Z,101457.16
2023-02-03T21:21:16.021Z,101460.53
2023-02-03T21:24:21.228Z,101464.41
2023-02-03T21:27:26.423Z,101463.06
2023-02-03T21:30:28.079Z,101474.59
2023-02-03T21:33:30.017Z,101389.06
2023-02-03T21:36:20.011Z,101474.47
2023-02-03T21:39:25.071Z,101478.84
2023-02-03T21:42:42.128Z,101469.25
2023-02-03T21:45:42.638Z,101487.03
2023-02-03T21:48:34.909Z,101476.19
2023-02-03T21:51:26.607Z,101478.56
2023-02-03T21:54:24.861Z,101503.69
2023-02-03T21:57:14.882Z,101487.59
2023-02-03T22:00:03.433Z,101486.25
2023-02-03T22:02:57.181Z,101486.25
2023-02-03T22:05:47.689Z,101407.88
2023-02-03T22:08:37.849Z,101488.47
2023-02-03T22:11:28.420Z,101485.47
2023-02-03T22:14:17.763Z,101491.28
2023-02-03T22:17:06.312Z,101493.66
2023-02-03T22:19:54.826Z,101490.78
2023-02-03T22:22:44.633Z,101497.19
2023-02-03T22:25:33.264Z,101496.66
2023-02-03T22:28:21.809Z,101496.97
2023-02-03T22:31:11.799Z,101498.59
2023-02-03T22:34:00.281Z,101501.94
2023-02-03T22:36:48.767Z,101512.94
2023-02-03T22:39:38.574Z,101521.88
2023-02-03T22:42:27.292Z,101533.91
2023-02-03T22:45:16.366Z,101533.91
2023-02-03T22:48:05.888Z,101530.03
2023-02-03T22:50:54.378Z,101533.09
2023-02-03T22:53:42.851Z,101532.56
2023-02-03T22:56:32.960Z,101525.75
2023-02-03T22:59:21.418Z,101535.09
2023-02-03T23:02:09.853Z,101528.56
2023-02-03T23:04:59.645Z,101537.75
2023-02-03T23:07:48.551Z,101512.69
2023-02-03T23:10:37.124Z,101533.78
2023-02-03T23:13:28.759Z,101530.16
2023-02-03T23:16:17.286Z,101540.53
2023-02-03T23:19:05.831Z,101539.53
2023-02-03T23:21:54.442Z,101491.22
2023-02-03T23:24:42.961Z,101544.75
2023-02-03T23:27:31.856Z,101561.38
2023-02-03T23:30:21.911Z,101544.19
2023-02-03T23:33:10.363Z,101543.50
2023-02-03T23:35:57.820Z,101547.31
2023-02-03T23:38:46.304Z,101547.41
2023-02-03T23:41:34.908Z,101558.44
2023-02-03T23:44:23.497Z,101564.47
2023-02-03T23:47:13.429Z,101548.31
2023-02-03T23:50:01.936Z,101539.16
2023-02-03T23:52:50.455Z,101537.81
2023-02-03T23:55:38.932Z,101545.34
2023-02-03T23:58:27.475Z,101546.63
